sensor_id;sensor_type;location;lat;lon;timestamp;temperature;humidity
77865;DHT22;67061;48.524;9.040;2024-03-08T00:02:19;2.10;99.90
77865;DHT22;67061;48.524;9.040;2024-03-08T00:04:46;2.00;99.90
77865;DHT22;67061;48.524;9.040;2024-03-08T00:07:13;2.00;99.90
77865;DHT22;67061;48.524;9.040;2024-03-08T00:09:40;2.00;99.90
77865;DHT22;67061;48.524;9.040;2024-03-08T00:12:08;2.00;99.90
77865;DHT22;67061;48.524;9.040;2024-03-08T00:14:35;2.00;99.90
77865;DHT22;67061;48.524;9.040;2024-03-08T00:17:04;1.90;99.90
77865;DHT22;67061;48.524;9.040;2024-03-08T00:19:31;1.80;99.90
77865;DHT22;67061;48.524;9.040;2024-03-08T00:21:58;1.80;99.90
77865;DHT22;67061;48.524;9.040;2024-03-08T00:24:25;1.70;99.90
77865;DHT22;67061;48.524;9.040;2024-03-08T00:26:52;1.70;99.90
77865;DHT22;67061;48.524;9.040;2024-03-08T00:29:21;1.70;99.90
77865;DHT22;67061;48.524;9.040;2024-03-08T00:31:48;1.60;99.90
77865;DHT22;67061;48.524;9.040;2024-03-08T00:34:15;1.60;99.90
77865;DHT22;67061;48.524;9.040;2024-03-08T00:36:42;1.50;99.90
77865;DHT22;67061;48.524;9.040;2024-03-08T00:39:09;1.40;99.90
77865;DHT22;67061;48.524;9.040;2024-03-08T00:41:37;1.30;99.90
77865;DHT22;67061;48.524;9.040;2024-03-08T00:44:04;1.20;99.90
77865;DHT22;67061;48.524;9.040;2024-03-08T00:46:32;1.10;99.90
77865;DHT22;67061;48.524;9.040;2024-03-08T00:48:59;1.00;99.90
77865;DHT22;67061;48.524;9.040;2024-03-08T00:51:26;1.00;99.90
77865;DHT22;67061;48.524;9.040;2024-03-08T00:53:53;1.00;99.90
77865;DHT22;67061;48.524;9.040;2024-03-08T00:56:20;1.00;99.90
77865;DHT22;67061;48.524;9.040;2024-03-08T00:58:46;1.00;99.90
77865;DHT22;67061;48.524;9.040;2024-03-08T01:01:13;1.00;99.90
77865;DHT22;67061;48.524;9.040;2024-03-08T01:03:43;1.00;99.90
77865;DHT22;67061;48.524;9.040;2024-03-08T01:06:10;1.00;99.90
77865;DHT22;67061;48.524;9.040;2024-03-08T01:08:37;0.90;99.90
77865;DHT22;67061;48.524;9.040;2024-03-08T01:11:07;0.80;99.90
77865;DHT22;67061;48.524;9.040;2024-03-08T01:13:34;0.80;99.90
77865;DHT22;67061;48.524;9.040;2024-03-08T01:16:01;0.60;99.90
77865;DHT22;67061;48.524;9.040;2024-03-08T01:18:29;0.60;99.90
77865;DHT22;67061;48.524;9.040;2024-03-08T01:20:57;0.50;99.90
77865;DHT22;67061;48.524;9.040;2024-03-08T01:23:24;0.50;99.90
77865;DHT22;67061;48.524;9.040;2024-03-08T01:25:51;0.40;99.90
77865;DHT22;67061;48.524;9.040;2024-03-08T01:28:22;0.30;99.90
77865;DHT22;67061;48.524;9.040;2024-03-08T01:30:49;0.20;99.90
77865;DHT22;67061;48.524;9.040;2024-03-08T01:33:22;0.20;99.90
77865;DHT22;67061;48.524;9.040;2024-03-08T01:35:49;0.10;99.90
77865;DHT22;67061;48.524;9.040;2024-03-08T01:38:17;0.10;99.90
77865;DHT22;67061;48.524;9.040;2024-03-08T01:40:44;0.20;99.90
77865;DHT22;67061;48.524;9.040;2024-03-08T01:43:18;0.00;99.90
77865;DHT22;67061;48.524;9.040;2024-03-08T01:45:45;0.00;99.90
77865;DHT22;67061;48.524;9.040;2024-03-08T01:48:13;-0.10;99.90
77865;DHT22;67061;48.524;9.040;2024-03-08T01:50:40;-0.10;99.90
77865;DHT22;67061;48.524;9.040;2024-03-08T01:53:08;-0.10;99.90
77865;DHT22;67061;48.524;9.040;2024-03-08T01:55:39;-0.20;99.90
77865;DHT22;67061;48.524;9.040;2024-03-08T01:58:06;-0.30;99.90
77865;DHT22;67061;48.524;9.040;2024-03-08T02:00:36;-0.30;99.90
77865;DHT22;67061;48.524;9.040;2024-03-08T02:03:05;-0.40;99.90
77865;DHT22;67061;48.524;9.040;2024-03-08T02:05:32;-0.40;99.90
77865;DHT22;67061;48.524;9.040;2024-03-08T02:07:59;-0.50;99.90
77865;DHT22;67061;48.524;9.040;2024-03-08T02:10:27;-0.50;99.90
77865;DHT22;67061;48.524;9.040;2024-03-08T02:12:55;-0.60;99.90
77865;DHT22;67061;48.524;9.040;2024-03-08T02:15:22;-0.60;99.90
77865;DHT22;67061;48.524;9.040;2024-03-08T02:17:49;-0.70;99.90
77865;DHT22;67061;48.524;9.040;2024-03-08T02:20:16;-0.70;99.90
77865;DHT22;67061;48.524;9.040;2024-03-08T02:22:46;-0.70;99.90
77865;DHT22;67061;48.524;9.040;2024-03-08T02:25:13;-0.70;99.90
77865;DHT22;67061;48.524;9.040;2024-03-08T02:27:41;-0.70;99.90
77865;DHT22;67061;48.524;9.040;2024-03-08T02:30:09;-0.70;99.90
77865;DHT22;67061;48.524;9.040;2024-03-08T02:32:38;-0.80;99.90
77865;DHT22;67061;48.524;9.040;2024-03-08T02:35:05;-0.80;99.90
77865;DHT22;67061;48.524;9.040;2024-03-08T02:37:32;-0.90;99.90
77865;DHT22;67061;48.524;9.040;2024-03-08T02:40:00;-0.80;99.90
77865;DHT22;67061;48.524;9.040;2024-03-08T02:42:27;-0.70;99.90
77865;DHT22;67061;48.524;9.040;2024-03-08T02:44:54;-0.70;99.90
77865;DHT22;67061;48.524;9.040;2024-03-08T02:47:21;-0.70;99.90
77865;DHT22;67061;48.524;9.040;2024-03-08T02:49:47;-0.70;99.90
77865;DHT22;67061;48.524;9.040;2024-03-08T02:52:15;-0.70;99.90
77865;DHT22;67061;48.524;9.040;2024-03-08T02:54:43;-0.70;99.90
77865;DHT22;67061;48.524;9.040;2024-03-08T02:57:13;-0.70;99.90
77865;DHT22;67061;48.524;9.040;2024-03-08T02:59:40;-0.70;99.90
77865;DHT22;67061;48.524;9.040;2024-03-08T03:02:07;-0.80;99.90
77865;DHT22;67061;48.524;9.040;2024-03-08T03:04:35;-0.90;99.90
77865;DHT22;67061;48.524;9.040;2024-03-08T03:07:02;-0.90;99.90
77865;DHT22;67061;48.524;9.040;2024-03-08T03:09:30;-0.90;99.90
77865;DHT22;67061;48.524;9.040;2024-03-08T03:11:58;-0.90;99.90
77865;DHT22;67061;48.524;9.040;2024-03-08T03:14:26;-0.90;99.90
77865;DHT22;67061;48.524;9.040;2024-03-08T03:16:52;-0.90;99.90
77865;DHT22;67061;48.524;9.040;2024-03-08T03:19:19;-0.80;99.90
77865;DHT22;67061;48.524;9.040;2024-03-08T03:21:46;-0.70;99.90
77865;DHT22;67061;48.524;9.040;2024-03-08T03:24:13;-0.70;99.90
77865;DHT22;67061;48.524;9.040;2024-03-08T03:26:42;-0.70;99.90
77865;DHT22;67061;48.524;9.040;2024-03-08T03:29:09;-0.70;99.90
77865;DHT22;67061;48.524;9.040;2024-03-08T03:31:38;-0.70;99.90
77865;DHT22;67061;48.524;9.040;2024-03-08T03:34:05;-0.70;99.90
77865;DHT22;67061;48.524;9.040;2024-03-08T03:36:34;-0.70;99.90
77865;DHT22;67061;48.524;9.040;2024-03-08T03:39:03;-0.70;99.90
77865;DHT22;67061;48.524;9.040;2024-03-08T03:41:36;-0.70;99.90
77865;DHT22;67061;48.524;9.040;2024-03-08T03:44:04;-0.70;99.90
77865;DHT22;67061;48.524;9.040;2024-03-08T03:46:32;-0.70;99.90
77865;DHT22;67061;48.524;9.040;2024-03-08T03:49:00;-0.70;99.90
77865;DHT22;67061;48.524;9.040;2024-03-08T03:51:29;-0.80;99.90
77865;DHT22;67061;48.524;9.040;2024-03-08T03:53:56;-0.80;99.90
77865;DHT22;67061;48.524;9.040;2024-03-08T03:56:25;-0.80;99.90
77865;DHT22;67061;48.524;9.040;2024-03-08T03:58:52;-0.70;99.90
77865;DHT22;67061;48.524;9.040;2024-03-08T04:01:19;-0.80;99.90
77865;DHT22;67061;48.524;9.040;2024-03-08T04:03:46;-0.90;99.90
77865;DHT22;67061;48.524;9.040;2024-03-08T04:06:14;-1.00;99.90
77865;DHT22;67061;48.524;9.040;2024-03-08T04:08:41;-1.10;99.90
77865;DHT22;67061;48.524;9.040;2024-03-08T04:11:08;-1.10;99.90
77865;DHT22;67061;48.524;9.040;2024-03-08T04:13:35;-1.10;99.90
77865;DHT22;67061;48.524;9.040;2024-03-08T04:16:04;-1.20;99.90
77865;DHT22;67061;48.524;9.040;2024-03-08T04:18:33;-1.30;99.90
77865;DHT22;67061;48.524;9.040;2024-03-08T04:21:04;-1.30;99.90
77865;DHT22;67061;48.524;9.040;2024-03-08T04:23:34;-1.30;99.90
77865;DHT22;67061;48.524;9.040;2024-03-08T04:26:01;-1.30;99.90
77865;DHT22;67061;48.524;9.040;2024-03-08T04:28:31;-1.30;99.90
77865;DHT22;67061;48.524;9.040;2024-03-08T04:30:58;-1.30;99.90
77865;DHT22;67061;48.524;9.040;2024-03-08T04:33:26;-1.30;99.90
77865;DHT22;67061;48.524;9.040;2024-03-08T04:35:53;-1.30;99.90
77865;DHT22;67061;48.524;9.040;2024-03-08T04:38:20;-1.30;99.90
77865;DHT22;67061;48.524;9.040;2024-03-08T04:40:49;-1.50;99.90
77865;DHT22;67061;48.524;9.040;2024-03-08T04:43:16;-1.50;99.90
77865;DHT22;67061;48.524;9.040;2024-03-08T04:45:44;-1.50;99.90
77865;DHT22;67061;48.524;9.040;2024-03-08T04:48:11;-1.50;99.90
77865;DHT22;67061;48.524;9.040;2024-03-08T04:50:38;-1.50;99.90
77865;DHT22;67061;48.524;9.040;2024-03-08T04:53:05;-1.50;99.90
77865;DHT22;67061;48.524;9.040;2024-03-08T04:55:33;-1.50;99.90
77865;DHT22;67061;48.524;9.040;2024-03-08T04:58:02;-1.50;99.90
77865;DHT22;67061;48.524;9.040;2024-03-08T05:00:31;-1.50;99.90
77865;DHT22;67061;48.524;9.040;2024-03-08T05:02:58;-1.50;99.90
77865;DHT22;67061;48.524;9.040;2024-03-08T05:05:24;-1.50;99.90
77865;DHT22;67061;48.524;9.040;2024-03-08T05:07:54;-1.50;99.90
77865;DHT22;67061;48.524;9.040;2024-03-08T05:10:21;-1.40;99.90
77865;DHT22;67061;48.524;9.040;2024-03-08T05:12:48;-1.50;99.90
77865;DHT22;67061;48.524;9.040;2024-03-08T05:15:16;-1.40;99.90
77865;DHT22;67061;48.524;9.040;2024-03-08T05:17:43;-1.30;99.90
77865;DHT22;67061;48.524;9.040;2024-03-08T05:20:10;-1.30;99.90
77865;DHT22;67061;48.524;9.040;2024-03-08T05:22:39;-1.30;99.90
77865;DHT22;67061;48.524;9.040;2024-03-08T05:25:07;-1.10;99.90
77865;DHT22;67061;48.524;9.040;2024-03-08T05:27:34;-1.10;99.90
77865;DHT22;67061;48.524;9.040;2024-03-08T05:30:02;-1.10;99.90
77865;DHT22;67061;48.524;9.040;2024-03-08T05:32:31;-1.00;99.90
77865;DHT22;67061;48.524;9.040;2024-03-08T05:34:58;-0.90;99.90
77865;DHT22;67061;48.524;9.040;2024-03-08T05:37:25;-0.90;99.90
77865;DHT22;67061;48.524;9.040;2024-03-08T05:39:52;-0.80;99.90
77865;DHT22;67061;48.524;9.040;2024-03-08T05:42:19;-0.70;99.90
77865;DHT22;67061;48.524;9.040;2024-03-08T05:44:46;-0.70;99.90
77865;DHT22;67061;48.524;9.040;2024-03-08T05:47:15;-0.70;99.90
77865;DHT22;67061;48.524;9.040;2024-03-08T05:49:45;-0.70;99.90
77865;DHT22;67061;48.524;9.040;2024-03-08T05:52:12;-0.70;99.90
77865;DHT22;67061;48.524;9.040;2024-03-08T05:54:40;-0.60;99.90
77865;DHT22;67061;48.524;9.040;2024-03-08T05:57:07;-0.60;99.90
77865;DHT22;67061;48.524;9.040;2024-03-08T05:59:34;-0.50;99.90
77865;DHT22;67061;48.524;9.040;2024-03-08T06:02:01;-0.50;99.90
77865;DHT22;67061;48.524;9.040;2024-03-08T06:04:29;-0.40;99.90
77865;DHT22;67061;48.524;9.040;2024-03-08T06:06:57;-0.40;99.90
77865;DHT22;67061;48.524;9.040;2024-03-08T06:09:24;-0.40;99.90
77865;DHT22;67061;48.524;9.040;2024-03-08T06:11:51;-0.40;99.90
77865;DHT22;67061;48.524;9.040;2024-03-08T06:14:19;-0.30;99.90
77865;DHT22;67061;48.524;9.040;2024-03-08T06:16:46;-0.30;99.90
77865;DHT22;67061;48.524;9.040;2024-03-08T06:19:15;-0.30;99.90
77865;DHT22;67061;48.524;9.040;2024-03-08T06:21:42;-0.30;99.90
77865;DHT22;67061;48.524;9.040;2024-03-08T06:24:10;-0.30;99.90
77865;DHT22;67061;48.524;9.040;2024-03-08T06:26:38;-0.30;99.90
77865;DHT22;67061;48.524;9.040;2024-03-08T06:29:05;-0.30;99.90
77865;DHT22;67061;48.524;9.040;2024-03-08T06:31:32;-0.20;99.90
77865;DHT22;67061;48.524;9.040;2024-03-08T06:33:59;-0.20;99.90
77865;DHT22;67061;48.524;9.040;2024-03-08T06:36:27;-0.10;99.90
77865;DHT22;67061;48.524;9.040;2024-03-08T06:38:53;-0.10;99.90
77865;DHT22;67061;48.524;9.040;2024-03-08T06:41:23;0.00;99.90
77865;DHT22;67061;48.524;9.040;2024-03-08T06:43:50;0.00;99.90
77865;DHT22;67061;48.524;9.040;2024-03-08T06:46:22;0.10;99.90
77865;DHT22;67061;48.524;9.040;2024-03-08T06:48:50;0.20;99.90
77865;DHT22;67061;48.524;9.040;2024-03-08T06:51:17;0.30;99.90
77865;DHT22;67061;48.524;9.040;2024-03-08T06:53:44;0.30;99.90
77865;DHT22;67061;48.524;9.040;2024-03-08T06:56:11;0.40;99.90
77865;DHT22;67061;48.524;9.040;2024-03-08T06:58:39;0.50;99.90
77865;DHT22;67061;48.524;9.040;2024-03-08T07:01:06;0.60;99.90
77865;DHT22;67061;48.524;9.040;2024-03-08T07:03:41;0.60;99.90
77865;DHT22;67061;48.524;9.040;2024-03-08T07:06:10;0.70;99.90
77865;DHT22;67061;48.524;9.040;2024-03-08T07:08:37;0.80;99.90
77865;DHT22;67061;48.524;9.040;2024-03-08T07:11:04;0.90;99.90
77865;DHT22;67061;48.524;9.040;2024-03-08T07:13:30;1.00;99.90
77865;DHT22;67061;48.524;9.040;2024-03-08T07:15:59;1.00;99.90
77865;DHT22;67061;48.524;9.040;2024-03-08T07:18:26;1.20;99.90
77865;DHT22;67061;48.524;9.040;2024-03-08T07:20:55;1.30;99.90
77865;DHT22;67061;48.524;9.040;2024-03-08T07:23:22;1.40;99.90
77865;DHT22;67061;48.524;9.040;2024-03-08T07:26:03;1.50;99.90
77865;DHT22;67061;48.524;9.040;2024-03-08T07:28:30;1.50;99.90
77865;DHT22;67061;48.524;9.040;2024-03-08T07:30:59;1.60;99.90
77865;DHT22;67061;48.524;9.040;2024-03-08T07:33:42;1.60;99.90
77865;DHT22;67061;48.524;9.040;2024-03-08T07:36:09;1.60;99.90
77865;DHT22;67061;48.524;9.040;2024-03-08T07:38:36;1.60;99.90
77865;DHT22;67061;48.524;9.040;2024-03-08T07:41:03;1.70;99.90
77865;DHT22;67061;48.524;9.040;2024-03-08T07:43:30;1.70;99.90
77865;DHT22;67061;48.524;9.040;2024-03-08T07:45:59;1.80;99.90
77865;DHT22;67061;48.524;9.040;2024-03-08T07:48:26;1.80;99.90
77865;DHT22;67061;48.524;9.040;2024-03-08T07:50:53;1.90;99.90
77865;DHT22;67061;48.524;9.040;2024-03-08T07:53:20;1.90;99.90
77865;DHT22;67061;48.524;9.040;2024-03-08T07:55:48;1.90;99.90
77865;DHT22;67061;48.524;9.040;2024-03-08T07:58:15;1.90;99.90
77865;DHT22;67061;48.524;9.040;2024-03-08T08:00:43;1.90;99.90
77865;DHT22;67061;48.524;9.040;2024-03-08T08:03:11;1.90;99.90
77865;DHT22;67061;48.524;9.040;2024-03-08T08:05:38;1.90;99.90
77865;DHT22;67061;48.524;9.040;2024-03-08T08:08:05;2.00;99.90
77865;DHT22;67061;48.524;9.040;2024-03-08T08:10:36;2.10;99.90
77865;DHT22;67061;48.524;9.040;2024-03-08T08:13:03;2.20;99.90
77865;DHT22;67061;48.524;9.040;2024-03-08T08:15:30;2.40;99.90
77865;DHT22;67061;48.524;9.040;2024-03-08T08:17:59;2.40;99.90
77865;DHT22;67061;48.524;9.040;2024-03-08T08:20:29;2.40;99.90
77865;DHT22;67061;48.524;9.040;2024-03-08T08:22:57;2.50;99.90
77865;DHT22;67061;48.524;9.040;2024-03-08T08:25:24;2.50;99.90
77865;DHT22;67061;48.524;9.040;2024-03-08T08:27:51;2.50;99.90
77865;DHT22;67061;48.524;9.040;2024-03-08T08:30:19;2.50;99.90
77865;DHT22;67061;48.524;9.040;2024-03-08T08:32:46;2.60;99.90
77865;DHT22;67061;48.524;9.040;2024-03-08T08:35:14;2.70;99.90
77865;DHT22;67061;48.524;9.040;2024-03-08T08:37:42;2.70;99.90
77865;DHT22;67061;48.524;9.040;2024-03-08T08:40:10;2.70;99.90
77865;DHT22;67061;48.524;9.040;2024-03-08T08:42:40;2.60;99.90
77865;DHT22;67061;48.524;9.040;2024-03-08T08:45:08;2.70;99.90
77865;DHT22;67061;48.524;9.040;2024-03-08T08:47:36;2.80;99.90
77865;DHT22;67061;48.524;9.040;2024-03-08T08:50:04;2.90;99.90
77865;DHT22;67061;48.524;9.040;2024-03-08T08:52:31;2.80;99.90
77865;DHT22;67061;48.524;9.040;2024-03-08T08:55:01;2.90;99.90
77865;DHT22;67061;48.524;9.040;2024-03-08T08:57:29;2.90;99.90
77865;DHT22;67061;48.524;9.040;2024-03-08T08:59:56;3.00;99.90
77865;DHT22;67061;48.524;9.040;2024-03-08T09:02:23;3.00;99.90
77865;DHT22;67061;48.524;9.040;2024-03-08T09:04:51;3.00;99.90
77865;DHT22;67061;48.524;9.040;2024-03-08T09:07:18;3.00;99.90
77865;DHT22;67061;48.524;9.040;2024-03-08T09:09:45;3.00;99.90
77865;DHT22;67061;48.524;9.040;2024-03-08T09:12:13;2.90;99.90
77865;DHT22;67061;48.524;9.040;2024-03-08T09:14:40;3.00;99.90
77865;DHT22;67061;48.524;9.040;2024-03-08T09:17:07;3.00;99.90
77865;DHT22;67061;48.524;9.040;2024-03-08T09:19:35;3.10;99.90
77865;DHT22;67061;48.524;9.040;2024-03-08T09:22:02;3.20;99.90
77865;DHT22;67061;48.524;9.040;2024-03-08T09:24:30;3.10;99.90
77865;DHT22;67061;48.524;9.040;2024-03-08T09:26:57;3.10;99.90
77865;DHT22;67061;48.524;9.040;2024-03-08T09:29:26;3.20;99.90
77865;DHT22;67061;48.524;9.040;2024-03-08T09:31:54;3.30;99.90
77865;DHT22;67061;48.524;9.040;2024-03-08T09:34:21;3.30;99.90
77865;DHT22;67061;48.524;9.040;2024-03-08T09:36:48;3.30;99.90
77865;DHT22;67061;48.524;9.040;2024-03-08T09:39:16;3.50;99.90
77865;DHT22;67061;48.524;9.040;2024-03-08T09:41:46;3.50;99.90
77865;DHT22;67061;48.524;9.040;2024-03-08T09:44:14;3.50;99.90
77865;DHT22;67061;48.524;9.040;2024-03-08T09:46:42;3.50;99.90
77865;DHT22;67061;48.524;9.040;2024-03-08T09:49:09;3.70;99.90
77865;DHT22;67061;48.524;9.040;2024-03-08T09:51:38;3.80;99.90
77865;DHT22;67061;48.524;9.040;2024-03-08T09:54:07;3.90;99.90
77865;DHT22;67061;48.524;9.040;2024-03-08T09:56:35;3.60;99.90
77865;DHT22;67061;48.524;9.040;2024-03-08T09:59:02;3.50;99.90
77865;DHT22;67061;48.524;9.040;2024-03-08T10:01:59;3.50;99.90
77865;DHT22;67061;48.524;9.040;2024-03-08T10:04:28;3.50;99.90
77865;DHT22;67061;48.524;9.040;2024-03-08T10:06:57;3.60;99.90
77865;DHT22;67061;48.524;9.040;2024-03-08T10:09:24;3.90;99.90
77865;DHT22;67061;48.524;9.040;2024-03-08T10:11:54;3.90;99.90
77865;DHT22;67061;48.524;9.040;2024-03-08T10:14:23;4.00;99.90
77865;DHT22;67061;48.524;9.040;2024-03-08T10:16:52;4.00;99.90
77865;DHT22;67061;48.524;9.040;2024-03-08T10:19:21;4.00;99.90
77865;DHT22;67061;48.524;9.040;2024-03-08T10:21:48;4.00;99.80
77865;DHT22;67061;48.524;9.040;2024-03-08T10:24:15;4.10;99.90
77865;DHT22;67061;48.524;9.040;2024-03-08T10:26:43;4.10;99.80
77865;DHT22;67061;48.524;9.040;2024-03-08T10:29:12;4.10;99.90
77865;DHT22;67061;48.524;9.040;2024-03-08T10:31:43;4.10;99.00
77865;DHT22;67061;48.524;9.040;2024-03-08T10:34:10;4.20;99.90
77865;DHT22;67061;48.524;9.040;2024-03-08T10:36:39;4.40;99.90
77865;DHT22;67061;48.524;9.040;2024-03-08T10:39:10;4.50;97.80
77865;DHT22;67061;48.524;9.040;2024-03-08T10:41:40;4.70;98.00
77865;DHT22;67061;48.524;9.040;2024-03-08T10:44:19;4.80;98.30
77865;DHT22;67061;48.524;9.040;2024-03-08T10:47:00;5.10;98.10
77865;DHT22;67061;48.524;9.040;2024-03-08T10:49:31;5.30;95.80
77865;DHT22;67061;48.524;9.040;2024-03-08T10:52:03;5.30;96.20
77865;DHT22;67061;48.524;9.040;2024-03-08T10:54:31;5.10;92.90
77865;DHT22;67061;48.524;9.040;2024-03-08T10:56:59;5.00;94.70
77865;DHT22;67061;48.524;9.040;2024-03-08T10:59:28;5.10;94.20
77865;DHT22;67061;48.524;9.040;2024-03-08T11:01:56;5.10;95.10
77865;DHT22;67061;48.524;9.040;2024-03-08T11:04:22;5.10;95.20
77865;DHT22;67061;48.524;9.040;2024-03-08T11:06:50;5.20;94.70
77865;DHT22;67061;48.524;9.040;2024-03-08T11:09:30;5.20;94.10
77865;DHT22;67061;48.524;9.040;2024-03-08T11:12:19;5.00;94.40
77865;DHT22;67061;48.524;9.040;2024-03-08T11:14:47;5.30;95.40
77865;DHT22;67061;48.524;9.040;2024-03-08T11:17:15;5.50;92.50
77865;DHT22;67061;48.524;9.040;2024-03-08T11:19:47;5.10;95.10
77865;DHT22;67061;48.524;9.040;2024-03-08T11:22:26;5.50;94.00
77865;DHT22;67061;48.524;9.040;2024-03-08T11:25:01;5.60;92.50
77865;DHT22;67061;48.524;9.040;2024-03-08T11:27:29;5.80;91.80
77865;DHT22;67061;48.524;9.040;2024-03-08T11:30:00;5.90;92.50
77865;DHT22;67061;48.524;9.040;2024-03-08T11:32:35;6.30;91.10
77865;DHT22;67061;48.524;9.040;2024-03-08T11:35:06;6.50;88.50
77865;DHT22;67061;48.524;9.040;2024-03-08T11:37:34;6.50;87.50
77865;DHT22;67061;48.524;9.040;2024-03-08T11:40:12;6.50;88.70
77865;DHT22;67061;48.524;9.040;2024-03-08T11:42:45;6.60;89.20
77865;DHT22;67061;48.524;9.040;2024-03-08T11:45:14;6.80;87.00
77865;DHT22;67061;48.524;9.040;2024-03-08T11:47:42;7.00;85.10
77865;DHT22;67061;48.524;9.040;2024-03-08T11:50:12;7.40;85.20
77865;DHT22;67061;48.524;9.040;2024-03-08T11:52:39;7.80;83.10
77865;DHT22;67061;48.524;9.040;2024-03-08T11:55:08;8.00;81.00
77865;DHT22;67061;48.524;9.040;2024-03-08T11:57:36;8.30;79.50
77865;DHT22;67061;48.524;9.040;2024-03-08T12:00:04;8.40;79.20
77865;DHT22;67061;48.524;9.040;2024-03-08T12:02:32;8.80;77.70
77865;DHT22;67061;48.524;9.040;2024-03-08T12:05:04;9.00;75.70
77865;DHT22;67061;48.524;9.040;2024-03-08T12:07:35;8.80;77.20
77865;DHT22;67061;48.524;9.040;2024-03-08T12:10:17;9.20;75.40
77865;DHT22;67061;48.524;9.040;2024-03-08T12:12:44;9.80;74.40
77865;DHT22;67061;48.524;9.040;2024-03-08T12:15:12;10.20;70.40
77865;DHT22;67061;48.524;9.040;2024-03-08T12:17:40;9.70;73.90
77865;DHT22;67061;48.524;9.040;2024-03-08T12:20:12;10.00;70.70
77865;DHT22;67061;48.524;9.040;2024-03-08T12:22:41;9.70;73.40
77865;DHT22;67061;48.524;9.040;2024-03-08T12:25:09;10.40;70.30
77865;DHT22;67061;48.524;9.040;2024-03-08T12:27:39;10.70;69.90
77865;DHT22;67061;48.524;9.040;2024-03-08T12:30:20;10.70;69.40
77865;DHT22;67061;48.524;9.040;2024-03-08T12:32:53;11.30;67.50
77865;DHT22;67061;48.524;9.040;2024-03-08T12:35:23;10.40;69.40
77865;DHT22;67061;48.524;9.040;2024-03-08T12:37:52;9.70;69.80
77865;DHT22;67061;48.524;9.040;2024-03-08T12:40:19;10.00;71.60
77865;DHT22;67061;48.524;9.040;2024-03-08T12:42:54;10.30;68.80
77865;DHT22;67061;48.524;9.040;2024-03-08T12:45:21;9.70;71.80
77865;DHT22;67061;48.524;9.040;2024-03-08T12:47:50;9.20;71.70
77865;DHT22;67061;48.524;9.040;2024-03-08T12:50:17;9.40;71.80
77865;DHT22;67061;48.524;9.040;2024-03-08T12:52:44;9.00;73.80
77865;DHT22;67061;48.524;9.040;2024-03-08T12:55:11;9.30;72.80
77865;DHT22;67061;48.524;9.040;2024-03-08T12:57:38;9.00;72.60
77865;DHT22;67061;48.524;9.040;2024-03-08T13:00:07;9.00;73.20
77865;DHT22;67061;48.524;9.040;2024-03-08T13:02:39;9.20;73.10
77865;DHT22;67061;48.524;9.040;2024-03-08T13:05:08;9.40;74.40
77865;DHT22;67061;48.524;9.040;2024-03-08T13:07:36;9.80;72.80
77865;DHT22;67061;48.524;9.040;2024-03-08T13:10:05;10.40;69.20
77865;DHT22;67061;48.524;9.040;2024-03-08T13:12:32;10.00;70.30
77865;DHT22;67061;48.524;9.040;2024-03-08T13:15:04;10.00;71.00
77865;DHT22;67061;48.524;9.040;2024-03-08T13:17:33;10.40;69.30
77865;DHT22;67061;48.524;9.040;2024-03-08T13:20:00;9.80;69.90
77865;DHT22;67061;48.524;9.040;2024-03-08T13:22:30;10.00;71.50
77865;DHT22;67061;48.524;9.040;2024-03-08T13:24:57;9.90;70.50
77865;DHT22;67061;48.524;9.040;2024-03-08T13:27:26;10.10;70.60
77865;DHT22;67061;48.524;9.040;2024-03-08T13:29:53;9.90;69.30
77865;DHT22;67061;48.524;9.040;2024-03-08T13:32:20;9.40;71.20
77865;DHT22;67061;48.524;9.040;2024-03-08T13:34:49;9.70;70.70
77865;DHT22;67061;48.524;9.040;2024-03-08T13:37:16;10.20;70.90
77865;DHT22;67061;48.524;9.040;2024-03-08T13:39:43;10.50;69.30
77865;DHT22;67061;48.524;9.040;2024-03-08T13:42:11;9.80;69.50
77865;DHT22;67061;48.524;9.040;2024-03-08T13:44:43;9.50;71.10
77865;DHT22;67061;48.524;9.040;2024-03-08T13:47:11;9.10;71.60
77865;DHT22;67061;48.524;9.040;2024-03-08T13:49:39;8.60;73.30
77865;DHT22;67061;48.524;9.040;2024-03-08T13:52:07;8.90;74.40
77865;DHT22;67061;48.524;9.040;2024-03-08T13:54:35;9.00;73.00
77865;DHT22;67061;48.524;9.040;2024-03-08T13:57:02;9.00;73.70
77865;DHT22;67061;48.524;9.040;2024-03-08T13:59:30;8.70;73.50
77865;DHT22;67061;48.524;9.040;2024-03-08T14:01:58;8.40;74.60
77865;DHT22;67061;48.524;9.040;2024-03-08T14:04:27;8.40;75.00
77865;DHT22;67061;48.524;9.040;2024-03-08T14:06:54;8.50;76.60
77865;DHT22;67061;48.524;9.040;2024-03-08T14:09:28;8.80;76.10
77865;DHT22;67061;48.524;9.040;2024-03-08T14:11:56;9.00;72.80
77865;DHT22;67061;48.524;9.040;2024-03-08T14:14:24;8.90;73.30
77865;DHT22;67061;48.524;9.040;2024-03-08T14:16:51;9.00;72.90
77865;DHT22;67061;48.524;9.040;2024-03-08T14:19:20;9.30;72.20
77865;DHT22;67061;48.524;9.040;2024-03-08T14:21:47;9.80;70.50
77865;DHT22;67061;48.524;9.040;2024-03-08T14:24:15;10.00;68.90
77865;DHT22;67061;48.524;9.040;2024-03-08T14:26:43;10.10;69.00
77865;DHT22;67061;48.524;9.040;2024-03-08T14:29:10;10.00;68.00
77865;DHT22;67061;48.524;9.040;2024-03-08T14:31:38;10.00;68.70
77865;DHT22;67061;48.524;9.040;2024-03-08T14:34:06;9.60;68.30
77865;DHT22;67061;48.524;9.040;2024-03-08T14:36:33;9.40;69.50
77865;DHT22;67061;48.524;9.040;2024-03-08T14:39:00;9.40;70.30
77865;DHT22;67061;48.524;9.040;2024-03-08T14:41:27;9.30;70.30
77865;DHT22;67061;48.524;9.040;2024-03-08T14:43:56;9.20;70.70
77865;DHT22;67061;48.524;9.040;2024-03-08T14:46:23;9.20;70.80
77865;DHT22;67061;48.524;9.040;2024-03-08T14:48:50;9.10;72.20
77865;DHT22;67061;48.524;9.040;2024-03-08T14:51:18;8.90;72.30
77865;DHT22;67061;48.524;9.040;2024-03-08T14:53:47;8.70;74.20
77865;DHT22;67061;48.524;9.040;2024-03-08T14:56:15;8.80;74.20
77865;DHT22;67061;48.524;9.040;2024-03-08T14:58:43;8.80;74.60
77865;DHT22;67061;48.524;9.040;2024-03-08T15:01:11;8.80;73.30
77865;DHT22;67061;48.524;9.040;2024-03-08T15:03:39;8.60;73.60
77865;DHT22;67061;48.524;9.040;2024-03-08T15:06:08;8.50;74.60
77865;DHT22;67061;48.524;9.040;2024-03-08T15:08:36;8.50;75.40
77865;DHT22;67061;48.524;9.040;2024-03-08T15:11:03;8.60;74.60
77865;DHT22;67061;48.524;9.040;2024-03-08T15:13:31;8.60;75.40
77865;DHT22;67061;48.524;9.040;2024-03-08T15:16:05;8.60;74.50
77865;DHT22;67061;48.524;9.040;2024-03-08T15:18:35;8.60;73.90
77865;DHT22;67061;48.524;9.040;2024-03-08T15:21:04;8.60;74.50
77865;DHT22;67061;48.524;9.040;2024-03-08T15:23:34;8.60;73.70
77865;DHT22;67061;48.524;9.040;2024-03-08T15:26:01;8.60;74.10
77865;DHT22;67061;48.524;9.040;2024-03-08T15:28:29;8.50;74.40
77865;DHT22;67061;48.524;9.040;2024-03-08T15:31:03;8.50;74.70
77865;DHT22;67061;48.524;9.040;2024-03-08T15:33:36;8.50;73.90
77865;DHT22;67061;48.524;9.040;2024-03-08T15:36:08;8.50;73.70
77865;DHT22;67061;48.524;9.040;2024-03-08T15:38:36;8.50;74.70
77865;DHT22;67061;48.524;9.040;2024-03-08T15:41:04;8.60;73.60
77865;DHT22;67061;48.524;9.040;2024-03-08T15:43:35;8.50;74.10
77865;DHT22;67061;48.524;9.040;2024-03-08T15:46:02;8.50;74.10
77865;DHT22;67061;48.524;9.040;2024-03-08T15:48:30;8.50;73.80